createdAt,value
2019-01-31T00:00:06.893Z,28.55
2019-01-31T00:01:05.521Z,26.85
2019-01-31T00:01:49.682Z,28.00
2019-01-31T00:02:26.948Z,27.32
2019-01-31T00:03:06.413Z,27.93
2019-01-31T00:04:02.015Z,28.25
2019-01-31T00:04:54.705Z,27.60
2019-01-31T00:05:48.505Z,29.00
2019-01-31T00:06:53.297Z,28.80
2019-01-31T00:07:47.586Z,27.30
2019-01-31T00:08:45.148Z,28.30
2019-01-31T00:09:30.439Z,30.23
2019-01-31T00:10:14.370Z,30.97
2019-01-31T00:11:19.927Z,29.18
2019-01-31T00:12:06.014Z,28.50
2019-01-31T00:12:45.892Z,27.02
2019-01-31T00:13:30.725Z,28.67
2019-01-31T00:14:29.142Z,31.23
2019-01-31T00:15:17.366Z,29.05
2019-01-31T00:16:02.005Z,29.15
2019-01-31T00:16:57.209Z,28.50
2019-01-31T00:17:37.477Z,28.57
2019-01-31T00:18:36.145Z,28.10
2019-01-31T00:19:13.278Z,29.77
2019-01-31T00:19:56.877Z,31.12
2019-01-31T00:20:55.058Z,28.77
2019-01-31T00:21:53.540Z,30.62
2019-01-31T00:23:04.457Z,28.12
2019-01-31T00:23:57.105Z,28.95
2019-01-31T00:24:40.084Z,28.67
2019-01-31T00:25:35.509Z,27.77
2019-01-31T00:26:34.160Z,28.85
2019-01-31T00:27:10.605Z,29.32
2019-01-31T00:27:50.737Z,29.92
2019-01-31T00:28:27.310Z,30.27
2019-01-31T00:29:19.993Z,28.87
2019-01-31T00:30:06.678Z,29.52
2019-01-31T00:31:04.889Z,27.30
2019-01-31T00:31:57.645Z,28.02
2019-01-31T00:32:59.196Z,28.80
2019-01-31T00:33:51.828Z,28.25
2019-01-31T00:34:42.901Z,27.35
2019-01-31T00:35:44.531Z,27.37
2019-01-31T00:36:40.250Z,27.80
2019-01-31T00:37:17.349Z,26.40
2019-01-31T00:38:01.722Z,27.48
2019-01-31T00:38:56.751Z,28.45
2019-01-31T00:39:45.317Z,28.95
2019-01-31T00:40:27.580Z,28.05
2019-01-31T00:41:18.629Z,30.35
2019-01-31T00:41:56.681Z,27.20
2019-01-31T00:43:01.574Z,27.98
2019-01-31T00:43:47.696Z,27.50
2019-01-31T00:44:40.328Z,28.65
2019-01-31T00:45:32.978Z,27.40
2019-01-31T00:46:24.153Z,27.37
2019-01-31T00:47:03.974Z,27.95
2019-01-31T00:47:56.701Z,29.52
2019-01-31T00:48:52.233Z,27.15
2019-01-31T00:49:28.149Z,29.60
2019-01-31T00:50:19.130Z,25.75
2019-01-31T00:50:58.480Z,28.62
2019-01-31T00:51:53.662Z,29.37
2019-01-31T00:52:42.752Z,28.10
2019-01-31T00:53:24.385Z,27.62
2019-01-31T00:54:02.285Z,28.40
2019-01-31T00:54:44.675Z,27.95
2019-01-31T00:55:46.128Z,28.27
2019-01-31T00:56:38.778Z,26.55
2019-01-31T00:57:31.469Z,28.85
2019-01-31T00:58:24.107Z,26.25
2019-01-31T00:59:35.159Z,27.27
2019-01-31T01:00:27.781Z,26.70
2019-01-31T01:01:04.755Z,26.05
2019-01-31T01:02:03.029Z,26.82
2019-01-31T01:03:13.877Z,26.55
2019-01-31T01:04:12.204Z,27.37
2019-01-31T01:04:53.132Z,26.62
2019-01-31T01:05:57.679Z,26.55
2019-01-31T01:06:40.840Z,26.50
2019-01-31T01:07:17.986Z,26.80
2019-01-31T01:07:55.207Z,29.70
2019-01-31T01:08:31.866Z,28.65
2019-01-31T01:09:30.677Z,27.35
2019-01-31T01:10:35.626Z,28.30
2019-01-31T01:11:28.304Z,27.93
2019-01-31T01:12:04.746Z,25.80
2019-01-31T01:12:57.639Z,26.85
2019-01-31T01:13:50.261Z,27.93
2019-01-31T01:14:51.624Z,26.17
2019-01-31T01:15:44.258Z,26.45
2019-01-31T01:16:32.572Z,28.05
2019-01-31T01:17:17.890Z,26.80
2019-01-31T01:17:57.773Z,25.95
2019-01-31T01:18:40.017Z,28.83
2019-01-31T01:19:21.837Z,27.67
2019-01-31T01:20:20.323Z,26.45
2019-01-31T01:21:01.977Z,26.33
2019-01-31T01:21:43.028Z,28.07
2019-01-31T01:22:41.709Z,27.93
2019-01-31T01:23:32.069Z,25.17
2019-01-31T01:24:24.727Z,28.47
2019-01-31T01:25:04.638Z,25.80
2019-01-31T01:26:03.077Z,26.37
2019-01-31T01:27:14.165Z,27.07
2019-01-31T01:27:59.521Z,27.35
2019-01-31T01:28:53.696Z,25.70
2019-01-31T01:29:49.417Z,27.37
2019-01-31T01:30:48.036Z,26.62
2019-01-31T01:31:46.489Z,25.75
2019-01-31T01:32:51.120Z,23.87
2019-01-31T01:33:44.944Z,26.62
2019-01-31T01:34:23.448Z,26.45
2019-01-31T01:35:02.017Z,27.52
2019-01-31T01:35:44.850Z,30.32
2019-01-31T01:36:46.687Z,28.42
2019-01-31T01:37:39.320Z,26.45
2019-01-31T01:38:37.792Z,27.67
2019-01-31T01:39:32.197Z,25.52
2019-01-31T01:40:40.012Z,26.73
2019-01-31T01:41:24.565Z,26.42
2019-01-31T01:42:23.002Z,25.88
2019-01-31T01:43:02.737Z,26.75
2019-01-31T01:43:53.837Z,28.00
2019-01-31T01:44:39.749Z,26.07
2019-01-31T01:45:32.505Z,27.32
2019-01-31T01:46:25.262Z,26.20
2019-01-31T01:47:19.262Z,29.77
2019-01-31T01:48:04.418Z,27.17
2019-01-31T01:48:46.888Z,27.62
2019-01-31T01:49:45.852Z,28.83
2019-01-31T01:50:41.088Z,26.82
2019-01-31T01:51:41.057Z,28.27
2019-01-31T01:52:38.152Z,26.45
2019-01-31T01:53:33.696Z,25.65
2019-01-31T01:54:38.306Z,27.07
2019-01-31T01:55:30.554Z,29.05
2019-01-31T01:56:35.410Z,27.80
2019-01-31T01:57:14.714Z,27.60
2019-01-31T01:58:13.461Z,26.93
2019-01-31T01:58:58.222Z,28.35
2019-01-31T02:00:05.761Z,26.75
2019-01-31T02:00:58.435Z,25.10
2019-01-31T02:01:49.800Z,26.45
2019-01-31T02:02:41.138Z,26.50
2019-01-31T02:03:42.869Z,25.10
2019-01-31T02:04:36.791Z,26.97
2019-01-31T02:05:26.938Z,28.15
2019-01-31T02:06:18.375Z,26.70
2019-01-31T02:06:57.238Z,25.65
2019-01-31T02:07:58.822Z,26.45
2019-01-31T02:08:50.398Z,28.00
2019-01-31T02:09:33.365Z,27.27
2019-01-31T02:10:26.000Z,28.57
2019-01-31T02:11:17.244Z,26.27
2019-01-31T02:12:09.923Z,26.42
2019-01-31T02:13:01.245Z,26.90
2019-01-31T02:13:46.155Z,27.10
2019-01-31T02:14:38.795Z,26.17
2019-01-31T02:15:22.210Z,25.52
2019-01-31T02:16:20.724Z,26.95
2019-01-31T02:17:05.965Z,27.15
2019-01-31T02:17:58.726Z,26.35
2019-01-31T02:18:38.042Z,26.55
2019-01-31T02:19:20.597Z,25.25
2019-01-31T02:20:00.621Z,27.95
2019-01-31T02:20:50.048Z,26.73
2019-01-31T02:21:54.427Z,24.98
2019-01-31T02:22:34.221Z,26.80
2019-01-31T02:23:12.612Z,26.52
2019-01-31T02:23:50.900Z,26.93
2019-01-31T02:24:43.546Z,26.48
2019-01-31T02:25:19.285Z,25.77
2019-01-31T02:26:05.169Z,28.10
2019-01-31T02:26:56.117Z,25.95
2019-01-31T02:27:48.735Z,26.65
2019-01-31T02:28:35.087Z,26.80
2019-01-31T02:29:27.712Z,28.27
2019-01-31T02:30:13.447Z,26.35
2019-01-31T02:30:53.358Z,27.40
2019-01-31T02:31:32.803Z,25.82
2019-01-31T02:32:14.146Z,25.20
2019-01-31T02:33:09.792Z,25.68
2019-01-31T02:34:09.233Z,25.10
2019-01-31T02:34:49.456Z,24.45
2019-01-31T02:35:40.661Z,25.40
2019-01-31T02:36:17.342Z,26.70
2019-01-31T02:37:07.130Z,27.22
2019-01-31T02:37:45.184Z,27.48
2019-01-31T02:38:22.555Z,27.20
2019-01-31T02:39:00.989Z,29.32
2019-01-31T02:39:43.124Z,25.40
2019-01-31T02:40:50.002Z,25.97
2019-01-31T02:41:30.140Z,25.43
2019-01-31T02:42:52.637Z,24.77
2019-01-31T02:43:50.999Z,25.02
2019-01-31T02:44:39.739Z,24.45
2019-01-31T02:45:31.069Z,23.55
2019-01-31T02:46:09.505Z,24.87
2019-01-31T02:47:00.746Z,24.85
2019-01-31T02:47:42.185Z,24.00
2019-01-31T02:48:27.019Z,25.97
2019-01-31T02:49:03.494Z,24.18
2019-01-31T02:50:00.418Z,25.57
2019-01-31T02:50:55.882Z,24.50
2019-01-31T02:52:03.918Z,23.95
2019-01-31T02:52:56.537Z,24.70
2019-01-31T02:53:55.031Z,24.95
2019-01-31T02:54:46.809Z,23.73
2019-01-31T02:55:39.442Z,24.75
2019-01-31T02:56:25.822Z,23.20
2019-01-31T02:57:07.960Z,23.57
2019-01-31T02:57:59.212Z,23.87
2019-01-31T02:58:57.748Z,23.35
2019-01-31T02:59:38.636Z,23.15
2019-01-31T03:00:29.737Z,23.32
2019-01-31T03:01:20.884Z,23.50
2019-01-31T03:02:16.305Z,24.90
2019-01-31T03:02:59.454Z,22.75
2019-01-31T03:03:50.529Z,22.80
2019-01-31T03:04:52.329Z,23.22
2019-01-31T03:05:53.814Z,22.45
2019-01-31T03:06:55.436Z,23.25
2019-01-31T03:07:51.016Z,23.73
2019-01-31T03:08:55.445Z,23.02
2019-01-31T03:09:38.802Z,23.67
2019-01-31T03:10:30.412Z,22.85
2019-01-31T03:11:23.029Z,22.70
2019-01-31T03:12:08.967Z,23.35
2019-01-31T03:13:01.604Z,23.95
2019-01-31T03:13:38.364Z,23.42
2019-01-31T03:14:27.304Z,24.00
2019-01-31T03:15:07.553Z,23.45
2019-01-31T03:15:48.921Z,25.30
2019-01-31T03:16:50.653Z,25.52
2019-01-31T03:17:48.996Z,22.85
2019-01-31T03:18:29.642Z,21.75
2019-01-31T03:19:24.939Z,22.00
2019-01-31T03:20:01.565Z,22.95
2019-01-31T03:20:43.414Z,23.52
2019-01-31T03:21:21.406Z,23.50
2019-01-31T03:22:22.812Z,24.18
2019-01-31T03:23:16.517Z,23.27
2019-01-31T03:23:54.746Z,24.45
2019-01-31T03:24:31.458Z,21.25
2019-01-31T03:25:24.081Z,21.68
2019-01-31T03:26:00.737Z,22.35
2019-01-31T03:26:57.818Z,23.10
2019-01-31T03:27:42.863Z,23.55
2019-01-31T03:28:28.178Z,22.22
2019-01-31T03:29:08.697Z,21.42
2019-01-31T03:29:48.488Z,23.05
2019-01-31T03:30:39.441Z,25.20
2019-01-31T03:31:19.225Z,21.12
2019-01-31T03:31:55.072Z,21.45
2019-01-31T03:32:49.121Z,22.85
2019-01-31T03:33:47.672Z,21.97
2019-01-31T03:34:43.204Z,21.70
2019-01-31T03:35:22.367Z,21.35
2019-01-31T03:36:17.553Z,20.90
2019-01-31T03:37:10.196Z,20.15
2019-01-31T03:38:14.868Z,21.50
2019-01-31T03:38:55.466Z,20.30
2019-01-31T03:39:36.597Z,22.62
2019-01-31T03:40:16.762Z,20.75
2019-01-31T03:40:54.535Z,22.42
2019-01-31T03:41:49.767Z,21.87
2019-01-31T03:42:42.441Z,22.02
2019-01-31T03:43:28.863Z,20.95
2019-01-31T03:44:24.546Z,20.95
2019-01-31T03:45:26.329Z,22.02
2019-01-31T03:46:18.234Z,22.00
2019-01-31T03:47:12.868Z,21.17
2019-01-31T03:48:03.902Z,21.90
2019-01-31T03:48:45.692Z,20.25
2019-01-31T03:49:28.356Z,21.70
2019-01-31T03:50:06.768Z,20.52
2019-01-31T03:51:02.064Z,22.13
2019-01-31T03:51:40.452Z,20.60
2019-01-31T03:52:35.821Z,20.48
2019-01-31T03:53:29.944Z,21.33
2019-01-31T03:54:07.551Z,22.02
2019-01-31T03:54:57.162Z,20.77
2019-01-31T03:55:48.335Z,21.15
2019-01-31T03:56:26.611Z,20.05
2019-01-31T03:57:21.743Z,21.68
2019-01-31T03:57:58.737Z,21.52
2019-01-31T03:58:56.991Z,19.30
2019-01-31T03:59:33.015Z,20.55
2019-01-31T04:00:28.625Z,20.57
2019-01-31T04:01:36.578Z,20.55
2019-01-31T04:02:27.881Z,20.80
2019-01-31T04:03:23.485Z,21.50
2019-01-31T04:04:00.040Z,19.27
2019-01-31T04:04:39.020Z,21.25
2019-01-31T04:05:24.272Z,21.68
2019-01-31T04:06:00.004Z,21.25
2019-01-31T04:06:34.619Z,20.62
2019-01-31T04:07:08.122Z,22.40
2019-01-31T04:07:41.692Z,21.73
2019-01-31T04:08:15.179Z,20.65
2019-01-31T04:08:48.676Z,20.30
2019-01-31T04:09:22.159Z,20.62
2019-01-31T04:09:55.633Z,21.33
2019-01-31T04:10:29.156Z,22.48
2019-01-31T04:11:02.701Z,22.05
2019-01-31T04:11:36.179Z,21.82
2019-01-31T04:12:09.654Z,21.65
2019-01-31T04:12:43.281Z,23.05
2019-01-31T04:13:16.655Z,23.85
2019-01-31T04:13:50.131Z,22.62
2019-01-31T04:14:27.159Z,22.62
2019-01-31T04:14:58.808Z,22.75
2019-01-31T04:15:32.297Z,23.50
2019-01-31T04:16:05.812Z,22.25
2019-01-31T04:16:39.285Z,22.42
2019-01-31T04:17:12.769Z,22.37
2019-01-31T04:17:46.325Z,23.30
2019-01-31T04:18:19.938Z,24.40
2019-01-31T04:18:53.417Z,21.80
2019-01-31T04:19:26.881Z,24.00
2019-01-31T04:20:00.370Z,22.17
2019-01-31T04:20:33.839Z,21.77
2019-01-31T04:21:07.477Z,22.25
2019-01-31T04:21:40.950Z,22.98
2019-01-31T04:22:14.456Z,21.60
2019-01-31T04:22:47.941Z,22.30
2019-01-31T04:23:22.359Z,20.15
2019-01-31T04:23:55.878Z,22.40
2019-01-31T04:24:29.352Z,20.85
2019-01-31T04:25:03.013Z,22.35
2019-01-31T04:25:36.538Z,21.48
2019-01-31T04:26:10.264Z,22.70
2019-01-31T04:26:43.762Z,22.13
2019-01-31T04:27:17.340Z,21.80
2019-01-31T04:27:50.833Z,22.82
2019-01-31T04:28:24.323Z,21.17
2019-01-31T04:28:57.807Z,23.07
2019-01-31T04:29:31.399Z,22.02
2019-01-31T04:30:06.571Z,21.02
2019-01-31T04:30:40.081Z,22.35
2019-01-31T04:31:13.569Z,22.80
2019-01-31T04:31:47.082Z,22.95
2019-01-31T04:32:20.633Z,20.85
2019-01-31T04:32:54.128Z,20.40
2019-01-31T04:33:27.646Z,22.50
2019-01-31T04:34:01.124Z,21.42
2019-01-31T04:34:34.621Z,21.60
2019-01-31T04:35:08.117Z,21.62
2019-01-31T04:35:41.637Z,21.55
2019-01-31T04:36:15.112Z,19.75
2019-01-31T04:36:48.583Z,22.48
2019-01-31T04:37:22.151Z,20.65
2019-01-31T04:37:55.624Z,21.37
2019-01-31T04:38:29.108Z,20.10
2019-01-31T04:39:03.120Z,22.02
2019-01-31T04:39:36.678Z,21.55
2019-01-31T04:40:10.205Z,21.95
2019-01-31T04:40:43.739Z,21.30
2019-01-31T04:41:17.226Z,20.48
2019-01-31T04:41:50.692Z,20.65
2019-01-31T04:42:24.189Z,20.60
2019-01-31T04:42:57.684Z,19.80
2019-01-31T04:43:31.246Z,20.23
2019-01-31T04:44:04.837Z,21.12
2019-01-31T04:44:38.532Z,19.42
2019-01-31T04:45:12.209Z,19.85
2019-01-31T04:45:45.685Z,19.27
2019-01-31T04:46:37.767Z,21.12
2019-01-31T04:47:11.226Z,18.50
2019-01-31T04:47:44.724Z,20.70
2019-01-31T04:48:18.223Z,19.60
2019-01-31T04:48:52.501Z,20.92
2019-01-31T04:49:25.995Z,20.55
2019-01-31T04:49:59.483Z,19.30
2019-01-31T04:50:32.909Z,20.30
2019-01-31T04:51:06.424Z,20.05
2019-01-31T04:51:39.926Z,18.95
2019-01-31T04:52:13.406Z,18.87
2019-01-31T04:52:46.899Z,19.23
2019-01-31T04:53:20.393Z,18.75
2019-01-31T04:53:53.904Z,19.50
2019-01-31T04:54:27.506Z,19.92
2019-01-31T04:55:01.000Z,19.92
2019-01-31T04:55:34.541Z,22.35
2019-01-31T04:56:08.036Z,19.98
2019-01-31T04:56:41.509Z,18.75
2019-01-31T04:57:15.008Z,19.67
2019-01-31T04:57:48.581Z,19.65
2019-01-31T04:58:22.121Z,19.73
2019-01-31T04:58:55.639Z,19.57
2019-01-31T04:59:29.139Z,19.42
2019-01-31T05:00:02.639Z,20.00
2019-01-31T05:00:36.117Z,21.02
2019-01-31T05:01:09.616Z,20.05
2019-01-31T05:01:43.125Z,21.55
2019-01-31T05:02:16.666Z,20.92
2019-01-31T05:02:50.172Z,19.85
2019-01-31T05:03:23.756Z,21.12
2019-01-31T05:03:57.241Z,19.40
2019-01-31T05:04:30.720Z,20.62
2019-01-31T05:05:05.029Z,20.20
2019-01-31T05:05:38.560Z,20.35
2019-01-31T05:06:12.044Z,20.85
2019-01-31T05:06:45.520Z,21.42
2019-01-31T05:07:19.004Z,19.27
2019-01-31T05:07:52.570Z,22.25
2019-01-31T05:08:26.036Z,19.30
2019-01-31T05:08:59.527Z,20.97
2019-01-31T05:09:33.111Z,21.80
2019-01-31T05:10:07.813Z,21.57
2019-01-31T05:10:43.304Z,20.72
2019-01-31T05:11:16.505Z,20.08
2019-01-31T05:11:49.968Z,21.17
2019-01-31T05:12:23.451Z,22.60
2019-01-31T05:12:56.927Z,21.45
2019-01-31T05:13:30.442Z,21.35
2019-01-31T05:14:06.261Z,21.57
2019-01-31T05:14:39.789Z,18.25
2019-01-31T05:15:13.683Z,21.57
2019-01-31T05:15:47.158Z,21.50
2019-01-31T05:16:20.979Z,21.62
2019-01-31T05:16:54.445Z,21.60
2019-01-31T05:17:27.916Z,21.42
2019-01-31T05:18:01.456Z,20.77
2019-01-31T05:18:34.937Z,20.77
2019-01-31T05:19:08.428Z,21.33
2019-01-31T05:19:41.917Z,20.27
2019-01-31T05:20:16.253Z,20.30
2019-01-31T05:20:49.673Z,20.12
2019-01-31T05:21:23.220Z,20.15
2019-01-31T05:21:56.694Z,21.20
2019-01-31T05:22:30.160Z,21.12
2019-01-31T05:23:03.771Z,19.32
2019-01-31T05:23:37.260Z,18.55
2019-01-31T05:24:10.742Z,19.92
2019-01-31T05:24:44.213Z,19.32
2019-01-31T05:25:17.791Z,19.35
2019-01-31T05:25:51.317Z,19.60
2019-01-31T05:26:24.780Z,18.67
2019-01-31T05:26:58.287Z,19.42
2019-01-31T05:27:31.780Z,19.23
2019-01-31T05:28:05.277Z,18.02
2019-01-31T05:28:38.859Z,17.40
2019-01-31T05:29:12.335Z,18.25
2019-01-31T05:29:45.739Z,18.52
2019-01-31T05:30:19.221Z,18.25
2019-01-31T05:30:52.713Z,18.95
2019-01-31T05:31:26.321Z,18.10
2019-01-31T05:31:59.803Z,18.50
2019-01-31T05:32:33.286Z,19.70
2019-01-31T05:33:06.769Z,19.15
2019-01-31T05:33:43.044Z,20.20
2019-01-31T05:34:16.520Z,19.20
2019-01-31T05:34:49.976Z,19.85
2019-01-31T05:35:23.463Z,19.05
2019-01-31T05:35:56.928Z,20.15
2019-01-31T05:36:30.448Z,18.80
2019-01-31T05:37:03.976Z,18.60
2019-01-31T05:37:37.462Z,17.82
2019-01-31T05:38:11.016Z,17.50
2019-01-31T05:38:44.608Z,19.23
2019-01-31T05:39:18.184Z,18.48
2019-01-31T05:39:51.917Z,18.37
2019-01-31T05:40:25.418Z,17.17
2019-01-31T05:40:59.112Z,18.95
2019-01-31T05:41:32.679Z,18.98
2019-01-31T05:42:06.174Z,17.32
2019-01-31T05:42:39.683Z,17.75
2019-01-31T05:43:13.161Z,16.57
2019-01-31T05:43:46.629Z,17.77
2019-01-31T05:44:20.116Z,18.02
2019-01-31T05:44:53.595Z,17.07
2019-01-31T05:45:27.083Z,16.60
2019-01-31T05:46:00.751Z,16.50
2019-01-31T05:46:34.326Z,18.12
2019-01-31T05:47:07.829Z,17.32
2019-01-31T05:47:41.448Z,16.73
2019-01-31T05:48:14.976Z,17.32
2019-01-31T05:48:48.453Z,16.95
2019-01-31T05:49:21.969Z,17.15
2019-01-31T05:49:55.503Z,18.23
2019-01-31T05:50:28.989Z,17.92
2019-01-31T05:51:02.595Z,17.52
2019-01-31T05:51:39.117Z,17.27
2019-01-31T05:52:11.409Z,16.45
2019-01-31T05:52:44.896Z,16.00
2019-01-31T05:53:22.373Z,16.82
2019-01-31T05:53:56.542Z,17.50
2019-01-31T05:54:30.186Z,16.85
2019-01-31T05:55:03.959Z,15.45
2019-01-31T05:55:37.525Z,17.75
2019-01-31T05:56:11.063Z,15.90
2019-01-31T05:56:44.595Z,16.37
2019-01-31T05:57:18.133Z,16.32
2019-01-31T05:57:51.612Z,16.97
2019-01-31T05:58:25.109Z,16.02
2019-01-31T05:58:58.620Z,15.30
2019-01-31T05:59:32.105Z,16.02
2019-01-31T06:00:06.001Z,17.05
2019-01-31T06:00:39.575Z,17.00
2019-01-31T06:01:13.049Z,16.97
2019-01-31T06:01:46.525Z,15.85
2019-01-31T06:02:20.083Z,15.90
2019-01-31T06:02:53.751Z,16.95
2019-01-31T06:03:27.310Z,16.05
2019-01-31T06:04:00.894Z,15.70
2019-01-31T06:04:34.543Z,16.05
2019-01-31T06:05:08.337Z,16.15
2019-01-31T06:05:42.075Z,15.50
2019-01-31T06:06:15.642Z,16.27
2019-01-31T06:06:49.221Z,15.53
2019-01-31T06:07:22.719Z,15.88
2019-01-31T06:07:56.253Z,15.10
2019-01-31T06:08:29.749Z,16.80
2019-01-31T06:09:04.664Z,15.75
2019-01-31T06:09:38.160Z,15.58
2019-01-31T06:10:11.704Z,14.73
2019-01-31T06:10:45.395Z,16.30
2019-01-31T06:11:18.959Z,15.68
2019-01-31T06:11:52.600Z,16.45
2019-01-31T06:12:26.155Z,16.52
2019-01-31T06:12:59.629Z,15.58
2019-01-31T06:13:33.116Z,16.12
2019-01-31T06:14:07.510Z,13.90
2019-01-31T06:14:41.019Z,16.70
2019-01-31T06:15:14.864Z,14.58
2019-01-31T06:15:48.388Z,14.40
2019-01-31T06:16:21.860Z,14.95
2019-01-31T06:16:55.470Z,14.73
2019-01-31T06:17:29.064Z,15.35
2019-01-31T06:18:02.704Z,16.07
2019-01-31T06:18:36.237Z,15.23
2019-01-31T06:19:11.498Z,14.70
2019-01-31T06:19:44.989Z,14.65
2019-01-31T06:20:19.687Z,15.38
2019-01-31T06:20:53.187Z,14.95
2019-01-31T06:21:26.732Z,14.98
2019-01-31T06:22:00.190Z,14.07
2019-01-31T06:22:33.768Z,14.18
2019-01-31T06:23:07.356Z,14.68
2019-01-31T06:23:40.843Z,15.00
2019-01-31T06:24:14.355Z,14.55
2019-01-31T06:24:47.889Z,14.45
2019-01-31T06:25:21.532Z,16.27
2019-01-31T06:25:55.027Z,15.88
2019-01-31T06:26:28.531Z,15.48
2019-01-31T06:27:02.040Z,15.80
2019-01-31T06:27:35.526Z,14.75
2019-01-31T06:28:09.299Z,15.60
2019-01-31T06:28:42.771Z,15.03
2019-01-31T06:29:16.353Z,14.73
2019-01-31T06:29:49.894Z,14.63
2019-01-31T06:30:23.435Z,15.55
2019-01-31T06:30:57.642Z,15.80
2019-01-31T06:31:31.237Z,15.25
2019-01-31T06:32:04.720Z,15.98
2019-01-31T06:32:38.209Z,15.83
2019-01-31T06:33:12.135Z,16.05
2019-01-31T06:33:45.629Z,16.87
2019-01-31T06:34:19.176Z,15.20
2019-01-31T06:34:52.760Z,14.98
2019-01-31T06:35:26.282Z,15.35
2019-01-31T06:35:59.895Z,14.95
2019-01-31T06:36:33.451Z,15.25
2019-01-31T06:37:06.916Z,14.73
2019-01-31T06:37:40.430Z,14.95
2019-01-31T06:38:13.958Z,13.32
2019-01-31T06:38:47.481Z,13.60
2019-01-31T06:39:21.150Z,13.55
2019-01-31T06:39:54.777Z,12.95
2019-01-31T06:40:28.269Z,14.53
2019-01-31T06:41:01.784Z,14.40
2019-01-31T06:41:35.461Z,16.02
2019-01-31T06:42:08.946Z,13.85
2019-01-31T06:42:42.461Z,15.15
2019-01-31T06:43:16.141Z,14.33
2019-01-31T06:43:49.673Z,16.20
2019-01-31T06:44:23.284Z,13.05
2019-01-31T06:44:56.905Z,13.65
2019-01-31T06:45:30.452Z,14.18
2019-01-31T06:46:03.998Z,14.83
2019-01-31T06:46:37.626Z,13.93
2019-01-31T06:47:11.317Z,14.40
2019-01-31T06:47:44.877Z,16.97
2019-01-31T06:48:18.373Z,16.75
2019-01-31T06:48:51.882Z,17.15
2019-01-31T06:49:27.044Z,15.08
2019-01-31T06:50:00.546Z,15.95
2019-01-31T06:50:34.257Z,14.53
2019-01-31T06:51:09.803Z,15.60
2019-01-31T06:51:43.301Z,15.03
2019-01-31T06:52:16.837Z,14.95
2019-01-31T06:52:50.497Z,15.03
2019-01-31T06:53:24.003Z,14.45
2019-01-31T06:53:57.547Z,14.45
2019-01-31T06:54:31.141Z,14.15
2019-01-31T06:55:05.189Z,14.13
2019-01-31T06:55:38.704Z,13.93
2019-01-31T06:56:12.184Z,14.40
2019-01-31T06:56:45.593Z,14.40
2019-01-31T06:57:19.137Z,12.35
2019-01-31T06:57:52.672Z,14.55
2019-01-31T06:58:26.189Z,15.18
2019-01-31T06:58:59.742Z,14.15
2019-01-31T06:59:33.295Z,13.68
2019-01-31T07:00:08.690Z,14.00
2019-01-31T07:00:42.311Z,13.62
2019-01-31T07:01:15.796Z,12.47
2019-01-31T07:01:49.264Z,12.88
2019-01-31T07:02:22.749Z,13.70
2019-01-31T07:02:56.252Z,14.85
2019-01-31T07:03:29.777Z,15.63
2019-01-31T07:04:03.282Z,13.78
2019-01-31T07:04:37.245Z,14.20
2019-01-31T07:05:10.796Z,15.88
2019-01-31T07:05:44.691Z,14.20
2019-01-31T07:06:18.200Z,15.43
2019-01-31T07:06:51.746Z,15.40
2019-01-31T07:07:25.263Z,14.20
2019-01-31T07:08:05.930Z,15.20
2019-01-31T07:08:39.647Z,14.50
2019-01-31T07:09:13.158Z,15.53
2019-01-31T07:09:46.692Z,13.10
2019-01-31T07:10:23.742Z,14.50
2019-01-31T07:10:57.355Z,13.35
2019-01-31T07:11:30.876Z,14.85
2019-01-31T07:12:04.555Z,14.30
2019-01-31T07:12:38.158Z,13.78
2019-01-31T07:13:11.851Z,13.53
2019-01-31T07:13:45.389Z,15.00
2019-01-31T07:14:18.979Z,14.35
2019-01-31T07:14:52.563Z,14.58
2019-01-31T07:15:26.114Z,15.80
2019-01-31T07:15:59.647Z,14.58
2019-01-31T07:16:33.481Z,16.10
2019-01-31T07:17:09.250Z,14.65
2019-01-31T07:17:42.880Z,13.70
2019-01-31T07:18:16.424Z,14.75
2019-01-31T07:18:49.934Z,15.72
2019-01-31T07:19:23.549Z,15.93
2019-01-31T07:19:57.126Z,16.30
2019-01-31T07:20:30.714Z,14.73
2019-01-31T07:21:04.226Z,14.68
2019-01-31T07:21:37.749Z,15.40
2019-01-31T07:22:11.446Z,15.00
2019-01-31T07:22:45.385Z,15.45
2019-01-31T07:23:19.024Z,15.15
2019-01-31T07:23:52.571Z,14.35
2019-01-31T07:24:26.058Z,15.45
2019-01-31T07:24:59.525Z,15.93
2019-01-31T07:25:32.994Z,14.93
2019-01-31T07:26:06.518Z,15.78
2019-01-31T07:26:41.549Z,15.48
2019-01-31T07:27:15.239Z,16.70
2019-01-31T07:27:48.769Z,15.90
2019-01-31T07:28:22.474Z,16.42
2019-01-31T07:28:55.865Z,16.20
2019-01-31T07:29:29.354Z,16.60
2019-01-31T07:30:02.859Z,17.10
2019-01-31T07:30:36.340Z,16.82
2019-01-31T07:31:12.456Z,15.60
2019-01-31T07:31:46.000Z,16.20
2019-01-31T07:32:19.515Z,16.45
2019-01-31T07:32:53.003Z,17.42
2019-01-31T07:33:26.503Z,16.35
2019-01-31T07:33:59.973Z,16.60
2019-01-31T07:34:33.534Z,17.35
2019-01-31T07:35:08.137Z,17.35
2019-01-31T07:35:41.677Z,17.55
2019-01-31T07:36:15.150Z,17.55
2019-01-31T07:36:48.633Z,16.55
2019-01-31T07:37:25.011Z,16.93
2019-01-31T07:37:58.804Z,17.90
2019-01-31T07:38:32.515Z,17.32
2019-01-31T07:39:07.288Z,19.12
2019-01-31T07:39:40.879Z,18.35
2019-01-31T07:40:15.196Z,18.15
2019-01-31T07:40:48.691Z,18.07
2019-01-31T07:41:22.185Z,18.50
2019-01-31T07:41:59.209Z,19.20
2019-01-31T07:42:32.718Z,18.17
2019-01-31T07:43:06.247Z,19.85
2019-01-31T07:43:39.763Z,19.50
2019-01-31T07:44:13.314Z,18.87
2019-01-31T07:44:46.828Z,19.27
2019-01-31T07:45:22.267Z,17.40
2019-01-31T07:45:55.771Z,18.07
2019-01-31T07:46:29.750Z,16.70
2019-01-31T07:47:03.382Z,18.40
2019-01-31T07:47:37.006Z,17.80
2019-01-31T07:48:10.541Z,19.15
2019-01-31T07:48:44.064Z,18.95
2019-01-31T07:49:18.004Z,18.20
2019-01-31T07:49:51.541Z,16.75
2019-01-31T07:50:25.208Z,18.40
2019-01-31T07:50:58.733Z,18.80
2019-01-31T07:51:32.291Z,18.48
2019-01-31T07:52:05.971Z,17.92
2019-01-31T07:52:41.350Z,18.95
2019-01-31T07:53:14.974Z,18.05
2019-01-31T07:53:48.680Z,17.98
2019-01-31T07:54:22.298Z,17.62
2019-01-31T07:54:55.810Z,17.32
2019-01-31T07:55:29.343Z,17.73
2019-01-31T07:56:02.853Z,16.32
2019-01-31T07:56:36.413Z,16.85
2019-01-31T07:57:10.025Z,17.05
2019-01-31T07:57:43.569Z,16.57
2019-01-31T07:58:17.166Z,15.15
2019-01-31T07:58:50.708Z,17.07
2019-01-31T07:59:24.249Z,15.48
2019-01-31T07:59:57.720Z,16.85
2019-01-31T08:00:31.224Z,15.95
2019-01-31T08:01:04.778Z,15.63
2019-01-31T08:01:40.813Z,16.67
2019-01-31T08:02:13.884Z,16.65
2019-01-31T08:02:47.378Z,14.78
2019-01-31T08:03:20.885Z,17.90
2019-01-31T08:04:02.246Z,15.90
2019-01-31T08:04:29.491Z,16.30
2019-01-31T08:05:03.232Z,15.98
2019-01-31T08:05:36.791Z,15.90
2019-01-31T08:06:10.300Z,16.00
2019-01-31T08:06:43.775Z,15.35
2019-01-31T08:07:17.324Z,16.55
2019-01-31T08:07:52.382Z,15.50
2019-01-31T08:08:25.923Z,16.57
2019-01-31T08:08:59.413Z,16.60
2019-01-31T08:09:32.822Z,15.90
2019-01-31T08:10:07.825Z,17.42
2019-01-31T08:10:42.005Z,17.67
2019-01-31T08:11:15.609Z,15.98
2019-01-31T08:11:52.624Z,16.52
2019-01-31T08:12:24.346Z,16.65
2019-01-31T08:12:57.821Z,16.37
2019-01-31T08:13:31.387Z,16.40
2019-01-31T08:14:06.521Z,15.43
2019-01-31T08:14:40.409Z,16.37
2019-01-31T08:15:14.489Z,16.50
2019-01-31T08:15:48.045Z,16.02
2019-01-31T08:16:21.564Z,16.17
2019-01-31T08:16:55.053Z,16.20
2019-01-31T08:17:28.672Z,15.88
2019-01-31T08:18:02.226Z,15.15
2019-01-31T08:18:35.710Z,14.93
2019-01-31T08:19:09.211Z,15.18
2019-01-31T08:19:42.699Z,14.53
2019-01-31T08:20:16.288Z,15.32
2019-01-31T08:20:49.886Z,15.43
2019-01-31T08:21:23.665Z,15.88
2019-01-31T08:21:57.148Z,15.25
2019-01-31T08:22:30.847Z,15.20
2019-01-31T08:23:04.417Z,15.58
2019-01-31T08:23:38.462Z,16.07
2019-01-31T08:24:11.953Z,13.88
2019-01-31T08:24:45.624Z,15.03
2019-01-31T08:25:19.509Z,14.47
2019-01-31T08:25:53.028Z,13.65
2019-01-31T08:26:26.652Z,14.73
2019-01-31T08:27:00.141Z,13.58
2019-01-31T08:27:33.721Z,14.47
2019-01-31T08:28:07.523Z,14.58
2019-01-31T08:28:41.103Z,15.03
2019-01-31T08:29:16.347Z,14.78
2019-01-31T08:29:49.849Z,14.68
2019-01-31T08:30:24.447Z,14.85
2019-01-31T08:30:58.012Z,14.20
2019-01-31T08:31:31.498Z,14.20
2019-01-31T08:32:05.049Z,13.90
2019-01-31T08:32:38.541Z,12.90
2019-01-31T08:33:12.064Z,15.95
2019-01-31T08:33:45.548Z,13.48